Time;durP1;ratioP1;P1;durP2;ratioP2;P2;SDS_P1;SDS_P2;PMS_P1;PMS_P2;Temp;Humidity;BMP_temperature;BMP_pressure;BME280_temperature;BME280_humidity;BME280_pressure;Samples;Min_cycle;Max_cycle;Signal;HPM_P1;HPM_P2
2022/07/30 00:00:59;;;;;;;2.47;1.42;;;;;;;;;;4969799;28;20337;-63
2022/07/30 00:03:26;;;;;;;2.78;1.58;;;;;;;;;;4970787;28;20440;-63
2022/07/30 00:05:53;;;;;;;4.97;1.63;;;;;;;;;;4971086;28;20439;-64
2022/07/30 00:08:19;;;;;;;1.25;1.13;;;;;;;;;;4969908;28;20450;-63
2022/07/30 00:10:44;;;;;;;2.53;1.35;;;;;;;;;;4970689;28;20428;-63
2022/07/30 00:13:10;;;;;;;1.95;1.52;;;;;;;;;;4971155;28;20379;-63
2022/07/30 00:15:35;;;;;;;3.67;1.50;;;;;;;;;;4969800;28;20442;-63
2022/07/30 00:18:01;;;;;;;1.45;1.20;;;;;;;;;;4969461;28;20309;-63
2022/07/30 00:20:26;;;;;;;2.10;1.42;;;;;;;;;;4970317;28;20072;-63
2022/07/30 00:22:52;;;;;;;2.10;1.40;;;;;;;;;;4968416;28;20380;-63
2022/07/30 00:25:18;;;;;;;4.05;1.50;;;;;;;;;;4969957;28;20466;-64
2022/07/30 00:27:44;;;;;;;1.38;1.25;;;;;;;;;;4969743;28;20424;-63
2022/07/30 00:30:10;;;;;;;3.28;1.67;;;;;;;;;;4969994;28;20399;-63
2022/07/30 00:32:36;;;;;;;2.60;1.63;;;;;;;;;;4970286;28;20107;-63
2022/07/30 00:35:01;;;;;;;1.95;1.30;;;;;;;;;;4970153;28;20021;-65
2022/07/30 00:37:27;;;;;;;2.00;1.60;;;;;;;;;;4969333;28;20582;-63
2022/07/30 00:39:52;;;;;;;2.05;1.42;;;;;;;;;;4969765;28;20383;-63
2022/07/30 00:42:24;;;;;;;2.05;1.52;;;;;;;;;;4969651;28;20491;-63
2022/07/30 00:44:52;;;;;;;3.50;1.40;;;;;;;;;;4969659;28;20535;-63
2022/07/30 00:47:18;;;;;;;2.85;1.40;;;;;;;;;;4951204;28;20467;-65
2022/07/30 00:49:44;;;;;;;2.28;1.30;;;;;;;;;;4970250;28;20472;-63
2022/07/30 00:52:10;;;;;;;2.30;1.30;;;;;;;;;;4970098;28;20355;-63
2022/07/30 00:54:35;;;;;;;2.17;1.63;;;;;;;;;;4970080;28;20026;-64
2022/07/30 00:57:00;;;;;;;1.70;1.50;;;;;;;;;;4968943;28;20109;-63
2022/07/30 00:59:28;;;;;;;1.92;1.42;;;;;;;;;;4971423;28;20332;-63
2022/07/30 01:01:54;;;;;;;2.38;1.30;;;;;;;;;;4972772;28;20414;-63
2022/07/30 01:04:20;;;;;;;2.08;1.50;;;;;;;;;;4974691;28;20452;-64
2022/07/30 01:06:45;;;;;;;2.22;1.60;;;;;;;;;;4951283;28;20377;-64
2022/07/30 01:09:11;;;;;;;2.40;1.67;;;;;;;;;;4969133;28;20397;-63
2022/07/30 01:11:39;;;;;;;1.27;1.13;;;;;;;;;;4969078;28;20432;-63
2022/07/30 01:14:07;;;;;;;1.83;1.30;;;;;;;;;;4952028;28;20049;-63
2022/07/30 01:16:34;;;;;;;1.63;1.10;;;;;;;;;;4968845;28;20504;-64
2022/07/30 01:21:51;;;;;;;5.13;1.55;;;;;;;;;;4969066;28;20503;-64
2022/07/30 01:24:40;;;;;;;4.35;1.63;;;;;;;;;;4951663;28;20379;-63
2022/07/30 01:27:06;;;;;;;1.85;1.52;;;;;;;;;;4951237;28;20444;-63
2022/07/30 01:29:32;;;;;;;2.35;1.30;;;;;;;;;;4951381;28;20112;-63
2022/07/30 01:31:59;;;;;;;1.73;1.10;;;;;;;;;;4951469;28;20425;-63
2022/07/30 01:34:28;;;;;;;2.03;1.60;;;;;;;;;;4970130;28;20372;-64
2022/07/30 01:36:56;;;;;;;1.63;1.30;;;;;;;;;;4951121;28;20305;-63
2022/07/30 01:39:22;;;;;;;2.60;1.50;;;;;;;;;;4951939;28;20435;-65
2022/07/30 01:41:48;;;;;;;2.58;1.50;;;;;;;;;;4951158;28;20341;-63
2022/07/30 01:44:15;;;;;;;2.47;1.38;;;;;;;;;;4968341;28;20567;-64
2022/07/30 01:46:41;;;;;;;1.98;1.30;;;;;;;;;;4952414;28;20045;-63
2022/07/30 01:49:08;;;;;;;1.10;1.00;;;;;;;;;;4988237;28;20440;-63
2022/07/30 01:51:34;;;;;;;1.48;1.23;;;;;;;;;;4970649;28;20459;-63
2022/07/30 01:53:59;;;;;;;3.83;1.40;;;;;;;;;;4971299;28;20502;-63
2022/07/30 01:56:25;;;;;;;2.22;1.33;;;;;;;;;;4970567;28;20383;-64
2022/07/30 01:58:51;;;;;;;2.67;1.33;;;;;;;;;;4992693;28;20432;-63
2022/07/30 02:01:17;;;;;;;2.08;1.77;;;;;;;;;;4974106;28;20490;-63
2022/07/30 02:03:42;;;;;;;1.85;1.35;;;;;;;;;;4991973;28;20448;-63
2022/07/30 02:06:12;;;;;;;2.10;1.38;;;;;;;;;;4973971;28;20355;-64
2022/07/30 02:08:44;;;;;;;1.52;1.20;;;;;;;;;;4992447;28;20355;-63
2022/07/30 02:11:14;;;;;;;1.98;1.25;;;;;;;;;;4993246;28;20099;-64
2022/07/30 02:13:50;;;;;;;1.85;1.13;;;;;;;;;;4992044;28;20428;-63
2022/07/30 02:16:23;;;;;;;1.20;1.10;;;;;;;;;;4974355;28;20447;-64
2022/07/30 02:18:59;;;;;;;1.95;1.30;;;;;;;;;;4973265;28;20450;-63
2022/07/30 02:21:26;;;;;;;1.73;1.30;;;;;;;;;;4974130;28;20052;-64
2022/07/30 02:23:54;;;;;;;2.72;1.50;;;;;;;;;;4973455;28;20064;-63
2022/07/30 02:26:22;;;;;;;2.17;1.40;;;;;;;;;;4973568;28;20450;-63
2022/07/30 02:28:52;;;;;;;1.77;1.30;;;;;;;;;;4991956;28;20317;-64
2022/07/30 02:31:20;;;;;;;2.38;1.52;;;;;;;;;;4992659;28;20126;-64
2022/07/30 02:33:48;;;;;;;2.25;1.25;;;;;;;;;;4973527;28;20304;-64
2022/07/30 02:36:14;;;;;;;2.15;1.52;;;;;;;;;;4974061;28;20479;-65
2022/07/30 02:38:40;;;;;;;1.75;1.40;;;;;;;;;;4973940;28;20459;-64
2022/07/30 02:41:07;;;;;;;2.03;1.52;;;;;;;;;;4991214;28;20479;-63
2022/07/30 02:43:33;;;;;;;2.05;1.33;;;;;;;;;;4970339;28;20348;-64
2022/07/30 02:45:59;;;;;;;2.58;1.35;;;;;;;;;;4971627;28;20486;-63
2022/07/30 02:48:26;;;;;;;2.08;1.63;;;;;;;;;;4971894;28;20112;-64
2022/07/30 02:50:53;;;;;;;1.17;1.08;;;;;;;;;;4971313;28;20459;-63
2022/07/30 02:53:19;;;;;;;2.03;1.45;;;;;;;;;;4969983;28;20030;-63
2022/07/30 02:55:46;;;;;;;1.60;1.25;;;;;;;;;;4969796;28;20422;-64
2022/07/30 02:58:16;;;;;;;1.58;1.17;;;;;;;;;;4969893;28;20475;-65
2022/07/30 03:00:41;;;;;;;1.92;1.42;;;;;;;;;;4969968;28;20375;-63
2022/07/30 03:03:07;;;;;;;2.25;1.20;;;;;;;;;;4970369;28;20349;-64
2022/07/30 03:05:33;;;;;;;1.60;1.10;;;;;;;;;;4971416;28;20033;-64
2022/07/30 03:07:59;;;;;;;2.30;1.30;;;;;;;;;;4970098;28;20512;-63
2022/07/30 03:10:25;;;;;;;1.45;1.20;;;;;;;;;;4969204;28;20421;-64
2022/07/30 03:12:51;;;;;;;1.60;1.38;;;;;;;;;;4970174;28;20095;-63
2022/07/30 03:15:16;;;;;;;1.80;1.40;;;;;;;;;;4969542;28;20436;-64
2022/07/30 03:17:44;;;;;;;1.98;1.60;;;;;;;;;;4971610;28;20590;-63
2022/07/30 03:20:13;;;;;;;2.13;1.48;;;;;;;;;;4972031;28;20509;-63
2022/07/30 03:22:40;;;;;;;;;;;;;;;;;;4971294;28;20435;-64
2022/07/30 03:25:06;;;;;;;3.35;2.25;;;;;;;;;;4969480;28;20248;-63
2022/07/30 03:27:34;;;;;;;1.83;1.30;;;;;;;;;;4969240;28;20380;-63
2022/07/30 03:30:01;;;;;;;3.40;1.45;;;;;;;;;;4970973;28;20021;-65
2022/07/30 03:32:27;;;;;;;1.98;1.20;;;;;;;;;;4971900;28;20360;-63
2022/07/30 03:34:53;;;;;;;2.67;1.50;;;;;;;;;;4969712;28;20356;-64
2022/07/30 03:37:18;;;;;;;7.43;1.50;;;;;;;;;;4970262;28;20376;-63
2022/07/30 03:39:44;;;;;;;1.58;1.25;;;;;;;;;;4969489;28;20360;-63
2022/07/30 03:42:09;;;;;;;1.95;1.30;;;;;;;;;;4970460;28;20467;-63
2022/07/30 03:44:35;;;;;;;2.45;1.50;;;;;;;;;;4970250;28;20379;-63
2022/07/30 03:47:01;;;;;;;2.15;1.30;;;;;;;;;;4970356;28;20029;-64
2022/07/30 03:49:28;;;;;;;1.40;1.23;;;;;;;;;;4953015;28;20439;-64
2022/07/30 03:51:53;;;;;;;3.70;1.40;;;;;;;;;;4952982;28;20408;-63
2022/07/30 03:54:19;;;;;;;3.70;1.30;;;;;;;;;;4970197;28;20319;-64
2022/07/30 03:56:45;;;;;;;2.40;1.20;;;;;;;;;;4952724;28;20025;-63
2022/07/30 03:59:12;;;;;;;1.83;1.50;;;;;;;;;;4952518;28;20502;-63
2022/07/30 04:01:37;;;;;;;3.05;1.92;;;;;;;;;;4969978;28;20518;-63
2022/07/30 04:04:12;;;;;;;2.75;1.23;;;;;;;;;;4952604;28;20491;-63
2022/07/30 04:06:41;;;;;;;2.03;1.52;;;;;;;;;;4969998;28;20344;-63
2022/07/30 04:09:08;;;;;;;1.75;1.35;;;;;;;;;;4970719;28;20041;-64
2022/07/30 04:11:34;;;;;;;2.78;1.75;;;;;;;;;;4970577;28;20491;-67
2022/07/30 04:13:59;;;;;;;3.65;1.70;;;;;;;;;;4969798;28;20508;-63
2022/07/30 04:16:34;;;;;;;2.67;1.50;;;;;;;;;;4969741;28;20478;-63
2022/07/30 04:19:00;;;;;;;6.60;1.92;;;;;;;;;;4951974;28;20343;-64
2022/07/30 04:21:26;;;;;;;2.30;1.40;;;;;;;;;;4951333;28;20420;-63
2022/07/30 04:23:52;;;;;;;1.73;1.30;;;;;;;;;;4952123;28;20347;-63
2022/07/30 04:26:18;;;;;;;2.08;1.50;;;;;;;;;;4952277;28;20026;-64
2022/07/30 04:28:44;;;;;;;2.92;1.70;;;;;;;;;;4951884;28;20463;-64
2022/07/30 04:31:10;;;;;;;1.70;1.27;;;;;;;;;;4951900;28;20425;-64
2022/07/30 04:33:35;;;;;;;4.07;1.40;;;;;;;;;;4970546;28;20336;-65
2022/07/30 04:36:08;;;;;;;2.63;1.38;;;;;;;;;;4969459;28;20025;-63
2022/07/30 04:38:33;;;;;;;3.65;1.35;;;;;;;;;;4969531;28;20341;-64
2022/07/30 04:40:59;;;;;;;1.73;1.40;;;;;;;;;;4969867;28;20029;-63
2022/07/30 04:43:24;;;;;;;1.98;1.58;;;;;;;;;;4969413;28;20050;-64
2022/07/30 04:45:50;;;;;;;1.80;1.40;;;;;;;;;;4969618;28;20439;-63
2022/07/30 04:48:15;;;;;;;2.13;1.63;;;;;;;;;;4969346;28;20415;-63
2022/07/30 04:50:42;;;;;;;2.13;1.27;;;;;;;;;;4969843;28;20412;-64
2022/07/30 04:53:08;;;;;;;1.70;1.33;;;;;;;;;;4951584;28;20456;-64
2022/07/30 04:55:34;;;;;;;1.90;1.40;;;;;;;;;;4969150;28;20424;-63
2022/07/30 04:58:00;;;;;;;4.47;1.65;;;;;;;;;;4951529;28;20336;-63
2022/07/30 05:00:26;;;;;;;3.00;1.30;;;;;;;;;;4969495;28;20340;-65
2022/07/30 05:02:52;;;;;;;1.23;1.13;;;;;;;;;;4969495;28;20433;-63
2022/07/30 05:05:18;;;;;;;2.67;1.67;;;;;;;;;;4969017;28;20091;-64
2022/07/30 05:07:44;;;;;;;2.80;1.50;;;;;;;;;;4969422;28;20432;-65
2022/07/30 05:10:11;;;;;;;2.40;1.75;;;;;;;;;;4951443;28;20041;-64
2022/07/30 05:12:37;;;;;;;2.30;1.70;;;;;;;;;;4970201;28;20421;-63
2022/07/30 05:15:04;;;;;;;2.47;1.50;;;;;;;;;;4969542;28;20052;-63
2022/07/30 05:17:29;;;;;;;1.70;1.20;;;;;;;;;;4969406;28;20328;-64
2022/07/30 05:19:55;;;;;;;2.10;1.63;;;;;;;;;;4970120;28;20336;-63
2022/07/30 05:22:20;;;;;;;2.50;1.38;;;;;;;;;;4969370;28;20293;-63
2022/07/30 05:24:46;;;;;;;1.95;1.33;;;;;;;;;;4969019;28;20566;-63
2022/07/30 05:27:11;;;;;;;1.77;1.48;;;;;;;;;;4968799;28;20057;-65
2022/07/30 05:29:36;;;;;;;3.40;1.27;;;;;;;;;;4968644;28;20103;-63
2022/07/30 05:32:03;;;;;;;2.03;1.35;;;;;;;;;;4969824;28;20460;-63
2022/07/30 05:34:28;;;;;;;2.28;1.60;;;;;;;;;;4973113;28;20368;-64
2022/07/30 05:36:54;;;;;;;1.55;1.33;;;;;;;;;;4972799;28;20415;-64
2022/07/30 05:39:19;;;;;;;2.70;1.38;;;;;;;;;;4972945;28;20412;-63
2022/07/30 05:41:45;;;;;;;2.25;1.42;;;;;;;;;;4972966;28;20380;-63
2022/07/30 05:44:10;;;;;;;2.17;1.52;;;;;;;;;;4991007;28;20135;-63
2022/07/30 05:46:36;;;;;;;2.90;1.52;;;;;;;;;;4992907;28;20478;-63
2022/07/30 05:49:01;;;;;;;1.80;1.23;;;;;;;;;;4992735;28;20324;-64
2022/07/30 05:51:26;;;;;;;2.10;1.50;;;;;;;;;;4992526;28;20463;-64
2022/07/30 05:53:52;;;;;;;3.10;1.42;;;;;;;;;;4991938;28;20432;-63
2022/07/30 05:56:17;;;;;;;2.58;1.67;;;;;;;;;;4992812;28;20481;-63
2022/07/30 05:58:43;;;;;;;2.40;1.42;;;;;;;;;;4992234;28;20424;-63
2022/07/30 06:01:08;;;;;;;3.35;1.65;;;;;;;;;;4991862;28;20440;-63
2022/07/30 06:03:33;;;;;;;1.30;1.20;;;;;;;;;;4991869;28;20460;-64
2022/07/30 06:05:59;;;;;;;2.80;1.27;;;;;;;;;;4991957;28;20366;-63
2022/07/30 06:08:24;;;;;;;2.67;1.85;;;;;;;;;;5006689;28;20455;-63
2022/07/30 06:10:50;;;;;;;2.17;1.80;;;;;;;;;;4992085;28;20459;-64
2022/07/30 06:13:15;;;;;;;4.43;1.60;;;;;;;;;;4991853;28;20055;-63
2022/07/30 06:15:41;;;;;;;2.95;1.88;;;;;;;;;;4991621;28;20442;-64
2022/07/30 06:18:06;;;;;;;4.38;1.38;;;;;;;;;;4993528;28;20029;-63
2022/07/30 06:20:31;;;;;;;2.40;1.50;;;;;;;;;;4991676;28;20451;-63
2022/07/30 06:22:57;;;;;;;3.15;1.40;;;;;;;;;;4991834;28;20383;-63
2022/07/30 06:25:22;;;;;;;3.83;1.45;;;;;;;;;;4991590;28;20447;-63
2022/07/30 06:27:48;;;;;;;2.25;1.35;;;;;;;;;;4991688;28;20455;-63
2022/07/30 06:30:13;;;;;;;2.08;1.60;;;;;;;;;;4992213;28;20404;-64
2022/07/30 06:32:39;;;;;;;2.03;1.70;;;;;;;;;;4992847;28;20313;-63
2022/07/30 06:35:04;;;;;;;3.10;1.50;;;;;;;;;;4991676;28;20404;-63
2022/07/30 06:37:30;;;;;;;2.63;1.50;;;;;;;;;;4991490;28;20415;-63
2022/07/30 06:39:55;;;;;;;2.47;1.58;;;;;;;;;;4992049;28;20340;-63
2022/07/30 06:42:21;;;;;;;1.88;1.42;;;;;;;;;;4990640;28;20491;-64
2022/07/30 06:44:46;;;;;;;1.90;1.40;;;;;;;;;;4990224;28;20510;-66
2022/07/30 06:47:12;;;;;;;2.45;1.60;;;;;;;;;;4991459;28;20317;-64
2022/07/30 06:49:37;;;;;;;3.92;1.45;;;;;;;;;;4991411;28;20349;-63
2022/07/30 06:52:03;;;;;;;2.33;1.60;;;;;;;;;;4991490;28;20486;-64
2022/07/30 06:54:29;;;;;;;3.80;1.33;;;;;;;;;;4990835;28;20501;-63
2022/07/30 06:56:54;;;;;;;3.25;1.80;;;;;;;;;;4991568;28;20432;-63
2022/07/30 06:59:20;;;;;;;1.65;1.45;;;;;;;;;;4991101;28;20444;-64
2022/07/30 07:01:45;;;;;;;3.83;2.00;;;;;;;;;;4992027;28;20470;-63
2022/07/30 07:04:11;;;;;;;2.45;1.60;;;;;;;;;;4990618;28;20352;-63
2022/07/30 07:06:36;;;;;;;1.70;1.30;;;;;;;;;;4991045;28;20112;-64
2022/07/30 07:09:02;;;;;;;3.47;1.58;;;;;;;;;;4990870;28;20411;-65
2022/07/30 07:11:28;;;;;;;3.22;1.50;;;;;;;;;;4972859;28;20424;-63
2022/07/30 07:13:53;;;;;;;2.05;1.40;;;;;;;;;;4991857;28;20471;-63
2022/07/30 07:16:20;;;;;;;2.05;1.50;;;;;;;;;;4991100;28;20432;-63
2022/07/30 07:18:47;;;;;;;2.72;1.90;;;;;;;;;;4990492;28;20333;-63
2022/07/30 07:21:13;;;;;;;3.08;1.92;;;;;;;;;;4989878;28;20428;-63
2022/07/30 07:23:39;;;;;;;4.60;2.05;;;;;;;;;;4990865;28;20398;-63
2022/07/30 07:26:04;;;;;;;3.53;2.22;;;;;;;;;;4990640;28;20384;-63
2022/07/30 07:28:30;;;;;;;4.30;2.20;;;;;;;;;;4990280;28;20415;-63
2022/07/30 07:30:55;;;;;;;4.35;1.85;;;;;;;;;;4990868;28;20025;-65
2022/07/30 07:33:20;;;;;;;3.72;1.90;;;;;;;;;;4990365;28;20107;-63
2022/07/30 07:35:46;;;;;;;3.47;2.10;;;;;;;;;;4990850;28;20470;-63
2022/07/30 07:38:11;;;;;;;3.35;1.80;;;;;;;;;;4991587;28;20296;-63
2022/07/30 07:40:37;;;;;;;2.60;1.65;;;;;;;;;;4990474;28;20406;-63
2022/07/30 07:43:02;;;;;;;2.80;1.98;;;;;;;;;;4990984;28;20403;-64
2022/07/30 07:45:28;;;;;;;2.58;1.70;;;;;;;;;;4990121;28;20059;-63
2022/07/30 07:47:54;;;;;;;3.45;2.17;;;;;;;;;;4988938;28;20360;-64
2022/07/30 07:50:19;;;;;;;4.13;1.70;;;;;;;;;;4989960;28;20396;-63
2022/07/30 07:52:45;;;;;;;4.35;1.90;;;;;;;;;;4989880;28;20371;-65
2022/07/30 07:55:10;;;;;;;3.03;1.60;;;;;;;;;;4991066;28;20380;-63
2022/07/30 07:57:44;;;;;;;3.33;1.73;;;;;;;;;;4990408;28;20531;-63
2022/07/30 08:00:16;;;;;;;3.10;1.67;;;;;;;;;;4989915;28;20516;-64
2022/07/30 08:02:42;;;;;;;3.03;1.70;;;;;;;;;;4989593;28;20102;-63
2022/07/30 08:05:09;;;;;;;2.60;1.70;;;;;;;;;;4989965;28;20036;-66
2022/07/30 08:07:34;;;;;;;2.30;1.60;;;;;;;;;;4989916;28;20339;-63
2022/07/30 08:10:00;;;;;;;4.15;2.33;;;;;;;;;;4989726;28;20383;-64
2022/07/30 08:12:26;;;;;;;4.25;1.90;;;;;;;;;;4988602;28;20406;-63
2022/07/30 08:14:51;;;;;;;2.97;2.20;;;;;;;;;;4989981;28;20446;-63
2022/07/30 08:17:17;;;;;;;2.33;1.73;;;;;;;;;;4990277;28;20416;-63
2022/07/30 08:19:42;;;;;;;2.20;1.50;;;;;;;;;;4989342;28;20468;-63
2022/07/30 08:22:08;;;;;;;4.88;2.00;;;;;;;;;;4989472;28;20432;-63
2022/07/30 08:24:34;;;;;;;3.20;1.75;;;;;;;;;;4989351;28;20456;-63
2022/07/30 08:26:59;;;;;;;3.00;1.73;;;;;;;;;;4989302;28;20502;-63
2022/07/30 08:29:24;;;;;;;3.53;1.88;;;;;;;;;;4990966;28;20394;-63
2022/07/30 08:31:50;;;;;;;2.47;1.90;;;;;;;;;;4989269;28;20414;-64
2022/07/30 08:34:15;;;;;;;2.97;1.63;;;;;;;;;;4990461;28;20424;-63
2022/07/30 08:36:41;;;;;;;2.10;1.65;;;;;;;;;;4989327;28;20483;-64
2022/07/30 08:39:06;;;;;;;1.90;1.52;;;;;;;;;;4988915;28;20371;-64
2022/07/30 08:41:32;;;;;;;2.55;1.90;;;;;;;;;;4988860;28;20376;-64
2022/07/30 08:43:59;;;;;;;1.63;1.30;;;;;;;;;;5000525;28;20469;-63
2022/07/30 08:46:26;;;;;;;1.90;1.40;;;;;;;;;;4969268;28;20486;-63
2022/07/30 08:48:53;;;;;;;2.17;1.50;;;;;;;;;;4968203;28;20060;-63
2022/07/30 08:51:18;;;;;;;2.13;1.45;;;;;;;;;;4967824;28;20329;-63
2022/07/30 08:53:44;;;;;;;2.10;1.45;;;;;;;;;;4969420;28;20349;-63
2022/07/30 08:56:10;;;;;;;2.13;1.48;;;;;;;;;;4970495;28;20332;-63
2022/07/30 08:58:36;;;;;;;2.65;1.55;;;;;;;;;;4969483;28;20396;-63
2022/07/30 09:01:03;;;;;;;1.70;1.40;;;;;;;;;;4969582;28;20047;-63
2022/07/30 09:03:29;;;;;;;1.83;1.50;;;;;;;;;;4969182;28;20372;-63
2022/07/30 09:05:54;;;;;;;2.55;1.55;;;;;;;;;;4969500;28;20388;-63
2022/07/30 09:08:20;;;;;;;2.38;1.80;;;;;;;;;;4969770;28;20312;-64
2022/07/30 09:10:46;;;;;;;2.53;1.60;;;;;;;;;;4969201;28;20405;-63
2022/07/30 09:13:29;;;;;;;2.05;1.58;;;;;;;;;;4969584;28;20321;-63
2022/07/30 09:15:56;;;;;;;2.15;1.50;;;;;;;;;;4969223;28;20052;-63
2022/07/30 09:18:38;;;;;;;2.15;1.55;;;;;;;;;;4968923;28;20022;-63
2022/07/30 09:21:24;;;;;;;1.88;1.40;;;;;;;;;;4969372;28;20428;-63
2022/07/30 09:23:59;;;;;;;1.55;1.30;;;;;;;;;;4969273;28;20052;-64
2022/07/30 09:26:25;;;;;;;2.00;1.67;;;;;;;;;;4968639;28;20436;-63
2022/07/30 09:28:51;;;;;;;2.10;1.40;;;;;;;;;;4969033;28;20436;-64
2022/07/30 09:31:17;;;;;;;1.75;1.20;;;;;;;;;;4968657;28;20387;-63
2022/07/30 09:33:44;;;;;;;2.45;1.52;;;;;;;;;;4967838;28;20363;-63
2022/07/30 09:36:15;;;;;;;2.65;1.90;;;;;;;;;;4969061;28;20492;-67
2022/07/30 09:38:43;;;;;;;2.30;1.40;;;;;;;;;;4969107;28;20442;-63
2022/07/30 09:41:09;;;;;;;1.53;1.23;;;;;;;;;;4969084;28;20044;-64
2022/07/30 09:43:47;;;;;;;2.17;1.35;;;;;;;;;;4966766;28;20045;-63
2022/07/30 09:46:13;;;;;;;2.35;1.30;;;;;;;;;;4968878;28;20460;-63
2022/07/30 09:48:39;;;;;;;3.88;1.23;;;;;;;;;;4968949;28;20436;-63
2022/07/30 09:51:04;;;;;;;1.90;1.48;;;;;;;;;;4969624;28;20506;-63
2022/07/30 09:53:31;;;;;;;1.83;1.40;;;;;;;;;;4968844;28;20348;-63
2022/07/30 09:55:58;;;;;;;3.67;1.55;;;;;;;;;;4984067;28;20037;-64
2022/07/30 09:58:36;;;;;;;1.27;1.13;;;;;;;;;;4968811;28;20408;-65
2022/07/30 10:01:01;;;;;;;1.63;1.35;;;;;;;;;;4968755;28;20183;-64
2022/07/30 10:03:27;;;;;;;2.58;1.35;;;;;;;;;;4968520;28;20033;-63
2022/07/30 10:05:57;;;;;;;1.67;1.35;;;;;;;;;;4969004;28;20352;-63
2022/07/30 10:08:43;;;;;;;1.92;1.67;;;;;;;;;;4969624;28;20531;-63
2022/07/30 10:11:14;;;;;;;2.25;1.65;;;;;;;;;;4969482;28;20467;-63
2022/07/30 10:13:40;;;;;;;2.42;1.55;;;;;;;;;;4968341;28;20037;-63
2022/07/30 10:16:06;;;;;;;1.75;1.40;;;;;;;;;;4968272;28;20383;-63
2022/07/30 10:18:32;;;;;;;2.03;1.50;;;;;;;;;;4968777;28;20485;-63
2022/07/30 10:20:59;;;;;;;3.17;1.63;;;;;;;;;;4970390;28;20534;-63
2022/07/30 10:23:29;;;;;;;1.67;1.20;;;;;;;;;;4972150;28;20429;-63
2022/07/30 10:25:56;;;;;;;2.80;1.52;;;;;;;;;;4971976;28;20483;-63
2022/07/30 10:28:23;;;;;;;2.05;1.30;;;;;;;;;;4972039;28;20371;-63
2022/07/30 10:30:49;;;;;;;1.45;1.05;;;;;;;;;;4971686;28;20025;-63
2022/07/30 10:33:15;;;;;;;2.47;1.23;;;;;;;;;;4971881;28;20340;-63
2022/07/30 10:35:40;;;;;;;1.42;1.30;;;;;;;;;;4970436;28;20423;-62
2022/07/30 10:38:10;;;;;;;2.55;1.45;;;;;;;;;;4971408;28;20348;-64
2022/07/30 10:40:48;;;;;;;2.08;1.23;;;;;;;;;;4971011;28;20091;-63
2022/07/30 10:43:51;;;;;;;2.63;1.73;;;;;;;;;;4981300;28;20037;-63
2022/07/30 10:46:47;;;;;;;1.67;1.33;;;;;;;;;;4991387;28;20427;-63
2022/07/30 10:49:14;;;;;;;2.25;1.40;;;;;;;;;;4991214;28;20501;-63
2022/07/30 10:51:48;;;;;;;2.03;1.30;;;;;;;;;;4991224;28;20079;-63
2022/07/30 10:54:32;;;;;;;2.15;1.38;;;;;;;;;;4991393;28;20340;-63
2022/07/30 10:57:12;;;;;;;1.92;1.40;;;;;;;;;;4990916;28;20355;-63
2022/07/30 11:00:04;;;;;;;2.60;1.30;;;;;;;;;;4992032;28;20514;-64
2022/07/30 11:02:33;;;;;;;2.55;1.10;;;;;;;;;;4988615;28;20418;-63
2022/07/30 11:05:27;;;;;;;2.70;1.60;;;;;;;;;;4991644;28;20351;-63
2022/07/30 11:07:52;;;;;;;1.45;1.23;;;;;;;;;;4989633;28;20359;-63
2022/07/30 11:10:39;;;;;;;1.35;1.25;;;;;;;;;;4991063;28;20398;-64
2022/07/30 11:13:07;;;;;;;2.15;1.40;;;;;;;;;;4990729;28;20343;-64
2022/07/30 11:15:54;;;;;;;;;;;;;;;;;;4992562;28;20333;-63
2022/07/30 11:18:21;;;;;;;1.48;1.38;;;;;;;;;;4991248;28;20322;-63
2022/07/30 11:21:14;;;;;;;4.43;1.50;;;;;;;;;;4990884;28;20352;-63
2022/07/30 11:23:41;;;;;;;1.30;1.05;;;;;;;;;;4991579;28;20459;-64
2022/07/30 11:26:07;;;;;;;1.77;1.25;;;;;;;;;;4992189;28;20415;-62
2022/07/30 11:28:37;;;;;;;1.17;1.08;;;;;;;;;;5006103;28;20354;-62
2022/07/30 11:31:04;;;;;;;1.63;1.38;;;;;;;;;;4989961;28;20349;-62
2022/07/30 11:33:29;;;;;;;2.67;1.90;;;;;;;;;;5005682;28;20443;-62
2022/07/30 11:36:09;;;;;;;2.42;1.50;;;;;;;;;;4972667;28;20458;-63
2022/07/30 11:38:55;;;;;;;1.42;1.20;;;;;;;;;;4990448;28;20017;-63
2022/07/30 11:41:21;;;;;;;4.03;1.42;;;;;;;;;;4990382;28;20489;-63
2022/07/30 11:43:46;;;;;;;2.10;1.27;;;;;;;;;;4989995;28;20440;-63
2022/07/30 11:46:24;;;;;;;2.78;1.80;;;;;;;;;;5005793;28;20335;-63
2022/07/30 11:48:57;;;;;;;1.38;1.08;;;;;;;;;;4989776;28;20339;-63
2022/07/30 11:51:23;;;;;;;2.00;1.38;;;;;;;;;;4990731;28;20321;-63
2022/07/30 11:54:05;;;;;;;2.05;1.63;;;;;;;;;;5004776;28;20099;-63
2022/07/30 11:56:32;;;;;;;1.60;1.30;;;;;;;;;;4989883;28;20348;-62
2022/07/30 11:59:02;;;;;;;2.92;1.60;;;;;;;;;;4990272;28;20323;-62
2022/07/30 12:01:29;;;;;;;2.03;1.60;;;;;;;;;;4989817;28;20020;-63
2022/07/30 12:03:55;;;;;;;1.30;1.10;;;;;;;;;;4990050;28;20497;-63
2022/07/30 12:06:22;;;;;;;2.10;1.40;;;;;;;;;;4989845;28;20432;-63
2022/07/30 12:08:49;;;;;;;2.58;1.33;;;;;;;;;;4989937;28;20646;-62
2022/07/30 12:11:15;;;;;;;1.38;1.13;;;;;;;;;;4989433;28;20450;-63
2022/07/30 12:13:44;;;;;;;1.55;1.33;;;;;;;;;;4990144;28;20412;-64
2022/07/30 12:16:17;;;;;;;9.63;1.45;;;;;;;;;;4989707;28;20309;-62
2022/07/30 12:18:43;;;;;;;1.13;1.02;;;;;;;;;;4989382;28;20339;-63
2022/07/30 12:21:14;;;;;;;1.30;1.00;;;;;;;;;;4989684;28;20395;-65
2022/07/30 12:23:42;;;;;;;2.45;1.42;;;;;;;;;;4989358;28;20351;-63
2022/07/30 12:26:08;;;;;;;3.47;1.30;;;;;;;;;;4989121;28;20499;-63
2022/07/30 12:28:35;;;;;;;1.85;1.50;;;;;;;;;;4989656;28;20486;-63
2022/07/30 12:31:03;;;;;;;1.83;1.20;;;;;;;;;;5004072;28;20521;-63
2022/07/30 12:33:29;;;;;;;1.52;1.20;;;;;;;;;;4991388;28;20029;-63
2022/07/30 12:35:56;;;;;;;1.70;1.30;;;;;;;;;;4989482;28;20435;-63
2022/07/30 12:38:24;;;;;;;2.58;1.70;;;;;;;;;;4989756;28;20333;-63
2022/07/30 12:41:00;;;;;;;1.20;1.10;;;;;;;;;;5003827;28;20463;-63
2022/07/30 12:43:54;;;;;;;1.40;1.20;;;;;;;;;;4988634;28;20469;-63
2022/07/30 12:46:26;;;;;;;1.58;1.30;;;;;;;;;;4989198;28;20411;-64
2022/07/30 12:49:01;;;;;;;2.17;1.20;;;;;;;;;;4990152;28;20325;-65
2022/07/30 12:51:31;;;;;;;2.10;1.50;;;;;;;;;;4989418;28;20344;-64
2022/07/30 12:53:58;;;;;;;2.83;1.73;;;;;;;;;;5004651;28;20343;-65
2022/07/30 12:56:25;;;;;;;1.83;1.45;;;;;;;;;;4989427;28;20432;-64
2022/07/30 12:58:51;;;;;;;2.67;1.65;;;;;;;;;;4989079;28;20402;-64
2022/07/30 13:01:17;;;;;;;3.80;1.52;;;;;;;;;;4989146;28;20391;-65
2022/07/30 13:03:44;;;;;;;2.13;1.52;;;;;;;;;;4989187;28;20092;-65
2022/07/30 13:06:17;;;;;;;1.42;1.23;;;;;;;;;;4989057;28;20094;-65
2022/07/30 13:08:48;;;;;;;2.10;1.70;;;;;;;;;;4988656;28;20136;-65
2022/07/30 13:11:14;;;;;;;2.10;1.35;;;;;;;;;;4988681;28;20072;-65
2022/07/30 13:13:40;;;;;;;2.42;1.38;;;;;;;;;;4988877;28;20583;-65
2022/07/30 13:16:06;;;;;;;1.88;1.30;;;;;;;;;;4989563;28;20375;-65
2022/07/30 13:18:33;;;;;;;2.00;1.63;;;;;;;;;;4989098;28;20435;-66
2022/07/30 13:21:00;;;;;;;3.47;1.73;;;;;;;;;;4988886;28;20501;-65
2022/07/30 13:23:27;;;;;;;2.35;1.70;;;;;;;;;;5003731;28;20483;-64
2022/07/30 13:25:52;;;;;;;1.90;1.70;;;;;;;;;;4988954;28;20419;-64
2022/07/30 13:28:18;;;;;;;2.33;1.60;;;;;;;;;;4987307;28;20033;-64
2022/07/30 13:30:44;;;;;;;1.45;1.27;;;;;;;;;;4989650;28;20300;-65
2022/07/30 13:33:10;;;;;;;2.08;1.77;;;;;;;;;;4970496;28;20392;-66
2022/07/30 13:35:35;;;;;;;1.45;1.35;;;;;;;;;;4988501;28;20056;-64
2022/07/30 13:38:01;;;;;;;2.38;1.58;;;;;;;;;;4988339;28;20162;-64
2022/07/30 13:40:30;;;;;;;2.03;1.65;;;;;;;;;;4989186;28;20454;-64
2022/07/30 13:42:56;;;;;;;4.82;1.70;;;;;;;;;;4988090;28;20363;-64
2022/07/30 13:45:22;;;;;;;1.85;1.65;;;;;;;;;;4988165;28;20032;-64
2022/07/30 13:47:47;;;;;;;4.03;2.03;;;;;;;;;;4990357;28;20443;-65
2022/07/30 13:50:13;;;;;;;2.35;1.90;;;;;;;;;;4970894;28;20543;-64
2022/07/30 13:52:38;;;;;;;2.65;2.05;;;;;;;;;;4970347;28;20439;-64
2022/07/30 13:55:04;;;;;;;1.92;1.60;;;;;;;;;;4992239;28;20348;-64
2022/07/30 13:57:29;;;;;;;3.95;1.83;;;;;;;;;;4992164;28;20471;-64
2022/07/30 13:59:55;;;;;;;2.15;1.75;;;;;;;;;;4992240;28;20447;-64
2022/07/30 14:02:20;;;;;;;3.72;2.17;;;;;;;;;;4992184;28;20538;-64
2022/07/30 14:04:45;;;;;;;2.47;1.67;;;;;;;;;;4992282;28;20371;-64
2022/07/30 14:07:11;;;;;;;3.22;1.83;;;;;;;;;;4992539;28;20374;-64
2022/07/30 14:09:36;;;;;;;2.50;2.00;;;;;;;;;;4993001;28;20367;-65
2022/07/30 14:12:02;;;;;;;3.40;2.15;;;;;;;;;;4991763;28;20569;-64
2022/07/30 14:14:27;;;;;;;5.65;2.30;;;;;;;;;;4991920;28;20343;-64
2022/07/30 14:16:52;;;;;;;4.95;1.98;;;;;;;;;;5006668;28;20354;-65
2022/07/30 14:19:18;;;;;;;3.25;2.38;;;;;;;;;;4993784;28;20411;-64
2022/07/30 14:21:44;;;;;;;2.28;1.73;;;;;;;;;;4991663;28;20344;-64
2022/07/30 14:24:11;;;;;;;2.40;1.90;;;;;;;;;;4991758;28;20393;-64
2022/07/30 14:26:37;;;;;;;4.30;2.13;;;;;;;;;;4992693;28;20436;-64
2022/07/30 14:29:06;;;;;;;5.95;1.70;;;;;;;;;;4992002;28;20354;-64
2022/07/30 14:31:31;;;;;;;2.70;1.85;;;;;;;;;;4993692;28;20435;-66
2022/07/30 14:33:56;;;;;;;3.65;2.33;;;;;;;;;;4992786;28;20435;-66
2022/07/30 14:36:26;;;;;;;2.67;1.95;;;;;;;;;;4992424;28;20428;-66
2022/07/30 14:38:52;;;;;;;3.75;2.03;;;;;;;;;;4991096;28;20344;-67
2022/07/30 14:41:18;;;;;;;2.22;1.95;;;;;;;;;;4991184;28;20344;-65
2022/07/30 14:43:43;;;;;;;3.08;2.03;;;;;;;;;;4990808;28;20482;-65
2022/07/30 14:46:08;;;;;;;3.97;1.90;;;;;;;;;;4991598;28;20553;-66
2022/07/30 14:48:34;;;;;;;4.68;2.40;;;;;;;;;;4991556;28;20025;-65